sensor_id;sensor_type;location;lat;lon;timestamp;P1;durP1;ratioP1;P2;durP2;ratioP2
13197;SDS011;6664;52.514;13.440;2023-05-02T00:00:51;3.70;;;2.80;;
13197;SDS011;6664;52.514;13.440;2023-05-02T00:03:41;2.97;;;2.63;;
13197;SDS011;6664;52.514;13.440;2023-05-02T00:06:29;6.00;;;3.00;;
13197;SDS011;6664;52.514;13.440;2023-05-02T00:09:20;3.17;;;2.90;;
13197;SDS011;6664;52.514;13.440;2023-05-02T00:12:08;4.83;;;3.37;;
13197;SDS011;6664;52.514;13.440;2023-05-02T00:14:53;4.63;;;3.20;;
13197;SDS011;6664;52.514;13.440;2023-05-02T00:17:39;2.83;;;2.63;;
13197;SDS011;6664;52.514;13.440;2023-05-02T00:20:30;4.10;;;2.50;;
13197;SDS011;6664;52.514;13.440;2023-05-02T00:23:15;6.87;;;2.80;;
13197;SDS011;6664;52.514;13.440;2023-05-02T00:26:01;3.73;;;2.53;;
13197;SDS011;6664;52.514;13.440;2023-05-02T00:28:46;9.60;;;3.53;;
13197;SDS011;6664;52.514;13.440;2023-05-02T00:31:32;3.90;;;3.40;;
13197;SDS011;6664;52.514;13.440;2023-05-02T00:34:18;4.83;;;2.70;;
13197;SDS011;6664;52.514;13.440;2023-05-02T00:37:03;4.10;;;3.20;;
13197;SDS011;6664;52.514;13.440;2023-05-02T00:39:49;5.43;;;2.83;;
13197;SDS011;6664;52.514;13.440;2023-05-02T00:42:37;4.20;;;2.87;;
13197;SDS011;6664;52.514;13.440;2023-05-02T00:45:22;4.80;;;3.23;;
13197;SDS011;6664;52.514;13.440;2023-05-02T00:48:08;4.50;;;2.90;;
13197;SDS011;6664;52.514;13.440;2023-05-02T00:50:54;3.47;;;2.60;;
13197;SDS011;6664;52.514;13.440;2023-05-02T00:53:41;5.30;;;2.97;;
13197;SDS011;6664;52.514;13.440;2023-05-02T00:56:26;4.00;;;3.00;;
13197;SDS011;6664;52.514;13.440;2023-05-02T00:59:12;3.17;;;2.87;;
13197;SDS011;6664;52.514;13.440;2023-05-02T01:05:24;4.23;;;3.00;;
13197;SDS011;6664;52.514;13.440;2023-05-02T01:08:38;5.30;;;3.10;;
13197;SDS011;6664;52.514;13.440;2023-05-02T01:11:34;3.43;;;2.50;;
13197;SDS011;6664;52.514;13.440;2023-05-02T01:14:40;5.70;;;3.20;;
13197;SDS011;6664;52.514;13.440;2023-05-02T01:17:32;4.87;;;3.60;;
13197;SDS011;6664;52.514;13.440;2023-05-02T01:20:20;4.20;;;2.80;;
13197;SDS011;6664;52.514;13.440;2023-05-02T01:26:18;3.23;;;3.03;;
13197;SDS011;6664;52.514;13.440;2023-05-02T01:29:20;3.80;;;3.00;;
13197;SDS011;6664;52.514;13.440;2023-05-02T01:32:07;3.90;;;3.03;;
13197;SDS011;6664;52.514;13.440;2023-05-02T01:34:54;6.83;;;3.40;;
13197;SDS011;6664;52.514;13.440;2023-05-02T01:37:42;8.77;;;3.57;;
13197;SDS011;6664;52.514;13.440;2023-05-02T01:40:29;3.03;;;2.83;;
13197;SDS011;6664;52.514;13.440;2023-05-02T01:43:15;7.00;;;2.70;;
13197;SDS011;6664;52.514;13.440;2023-05-02T01:46:06;3.20;;;2.60;;
13197;SDS011;6664;52.514;13.440;2023-05-02T01:48:56;5.40;;;3.17;;
13197;SDS011;6664;52.514;13.440;2023-05-02T01:51:46;4.63;;;2.97;;
13197;SDS011;6664;52.514;13.440;2023-05-02T01:54:34;3.77;;;3.00;;
13197;SDS011;6664;52.514;13.440;2023-05-02T01:57:23;5.60;;;3.27;;
13197;SDS011;6664;52.514;13.440;2023-05-02T02:00:09;9.03;;;3.27;;
13197;SDS011;6664;52.514;13.440;2023-05-02T02:02:58;3.37;;;2.67;;
13197;SDS011;6664;52.514;13.440;2023-05-02T02:05:50;4.70;;;3.10;;
13197;SDS011;6664;52.514;13.440;2023-05-02T02:08:36;3.27;;;2.97;;
13197;SDS011;6664;52.514;13.440;2023-05-02T02:11:25;4.00;;;3.27;;
13197;SDS011;6664;52.514;13.440;2023-05-02T02:14:24;3.20;;;2.90;;
13197;SDS011;6664;52.514;13.440;2023-05-02T02:17:26;3.30;;;2.80;;
13197;SDS011;6664;52.514;13.440;2023-05-02T02:20:16;3.20;;;2.53;;
13197;SDS011;6664;52.514;13.440;2023-05-02T02:23:04;4.43;;;2.60;;
13197;SDS011;6664;52.514;13.440;2023-05-02T02:25:52;5.23;;;3.07;;
13197;SDS011;6664;52.514;13.440;2023-05-02T02:28:42;4.20;;;3.43;;
13197;SDS011;6664;52.514;13.440;2023-05-02T02:31:31;3.00;;;2.67;;
13197;SDS011;6664;52.514;13.440;2023-05-02T02:34:20;2.93;;;2.37;;
13197;SDS011;6664;52.514;13.440;2023-05-02T02:37:12;3.40;;;2.80;;
13197;SDS011;6664;52.514;13.440;2023-05-02T02:46:00;8.13;;;3.60;;
13197;SDS011;6664;52.514;13.440;2023-05-02T02:48:58;5.57;;;3.00;;
13197;SDS011;6664;52.514;13.440;2023-05-02T02:52:04;3.03;;;2.70;;
13197;SDS011;6664;52.514;13.440;2023-05-02T02:54:57;5.03;;;3.23;;
13197;SDS011;6664;52.514;13.440;2023-05-02T02:58:02;2.50;;;2.30;;
13197;SDS011;6664;52.514;13.440;2023-05-02T03:01:01;2.83;;;2.60;;
13197;SDS011;6664;52.514;13.440;2023-05-02T03:03:49;3.23;;;2.77;;
13197;SDS011;6664;52.514;13.440;2023-05-02T03:06:41;2.00;;;1.80;;
13197;SDS011;6664;52.514;13.440;2023-05-02T03:09:43;3.83;;;2.87;;
13197;SDS011;6664;52.514;13.440;2023-05-02T03:12:30;2.60;;;2.33;;
13197;SDS011;6664;52.514;13.440;2023-05-02T03:18:32;3.03;;;2.43;;
13197;SDS011;6664;52.514;13.440;2023-05-02T03:21:19;3.77;;;3.03;;
13197;SDS011;6664;52.514;13.440;2023-05-02T03:24:05;3.37;;;2.40;;
13197;SDS011;6664;52.514;13.440;2023-05-02T03:26:53;3.53;;;2.20;;
13197;SDS011;6664;52.514;13.440;2023-05-02T03:29:42;2.27;;;1.97;;
13197;SDS011;6664;52.514;13.440;2023-05-02T03:32:28;4.20;;;2.00;;
13197;SDS011;6664;52.514;13.440;2023-05-02T03:35:14;8.43;;;2.40;;
13197;SDS011;6664;52.514;13.440;2023-05-02T03:38:00;3.60;;;2.53;;
13197;SDS011;6664;52.514;13.440;2023-05-02T03:40:46;2.50;;;2.30;;
13197;SDS011;6664;52.514;13.440;2023-05-02T03:43:31;6.53;;;2.20;;
13197;SDS011;6664;52.514;13.440;2023-05-02T03:46:17;5.70;;;2.90;;
13197;SDS011;6664;52.514;13.440;2023-05-02T03:49:05;7.50;;;2.27;;
13197;SDS011;6664;52.514;13.440;2023-05-02T03:51:53;3.00;;;2.70;;
13197;SDS011;6664;52.514;13.440;2023-05-02T03:54:38;6.43;;;2.30;;
13197;SDS011;6664;52.514;13.440;2023-05-02T03:57:25;8.90;;;3.10;;
13197;SDS011;6664;52.514;13.440;2023-05-02T04:00:14;3.33;;;2.03;;
13197;SDS011;6664;52.514;13.440;2023-05-02T04:03:03;3.23;;;2.10;;
13197;SDS011;6664;52.514;13.440;2023-05-02T04:05:48;4.30;;;2.90;;
13197;SDS011;6664;52.514;13.440;2023-05-02T04:08:35;2.30;;;2.17;;
13197;SDS011;6664;52.514;13.440;2023-05-02T04:11:20;2.83;;;2.20;;
13197;SDS011;6664;52.514;13.440;2023-05-02T04:14:06;3.23;;;2.47;;
13197;SDS011;6664;52.514;13.440;2023-05-02T04:16:53;2.90;;;2.57;;
13197;SDS011;6664;52.514;13.440;2023-05-02T04:19:39;4.57;;;3.00;;
13197;SDS011;6664;52.514;13.440;2023-05-02T04:22:26;2.67;;;2.47;;
13197;SDS011;6664;52.514;13.440;2023-05-02T04:25:12;3.10;;;2.73;;
13197;SDS011;6664;52.514;13.440;2023-05-02T04:27:57;5.53;;;2.73;;
13197;SDS011;6664;52.514;13.440;2023-05-02T04:30:43;4.10;;;2.37;;
13197;SDS011;6664;52.514;13.440;2023-05-02T04:33:28;5.20;;;2.60;;
13197;SDS011;6664;52.514;13.440;2023-05-02T04:36:16;2.40;;;2.00;;
13197;SDS011;6664;52.514;13.440;2023-05-02T04:39:02;2.57;;;2.37;;
13197;SDS011;6664;52.514;13.440;2023-05-02T04:41:52;3.17;;;2.87;;
13197;SDS011;6664;52.514;13.440;2023-05-02T04:44:37;3.63;;;2.30;;
13197;SDS011;6664;52.514;13.440;2023-05-02T04:47:23;2.43;;;2.10;;
13197;SDS011;6664;52.514;13.440;2023-05-02T04:50:11;4.63;;;2.43;;
13197;SDS011;6664;52.514;13.440;2023-05-02T04:52:57;3.60;;;2.60;;
13197;SDS011;6664;52.514;13.440;2023-05-02T04:55:43;5.00;;;2.30;;
13197;SDS011;6664;52.514;13.440;2023-05-02T04:58:28;2.93;;;2.43;;
13197;SDS011;6664;52.514;13.440;2023-05-02T05:01:14;2.90;;;2.00;;
13197;SDS011;6664;52.514;13.440;2023-05-02T05:04:00;3.30;;;2.60;;
13197;SDS011;6664;52.514;13.440;2023-05-02T05:06:49;2.07;;;1.87;;
13197;SDS011;6664;52.514;13.440;2023-05-02T05:09:34;2.27;;;2.10;;
13197;SDS011;6664;52.514;13.440;2023-05-02T05:12:22;2.40;;;2.03;;
13197;SDS011;6664;52.514;13.440;2023-05-02T05:15:07;3.03;;;2.10;;
13197;SDS011;6664;52.514;13.440;2023-05-02T05:17:53;3.90;;;3.13;;
13197;SDS011;6664;52.514;13.440;2023-05-02T05:20:40;4.17;;;2.90;;
13197;SDS011;6664;52.514;13.440;2023-05-02T05:23:26;5.10;;;2.70;;
13197;SDS011;6664;52.514;13.440;2023-05-02T05:26:14;2.60;;;2.40;;
13197;SDS011;6664;52.514;13.440;2023-05-02T05:29:02;3.10;;;2.77;;
13197;SDS011;6664;52.514;13.440;2023-05-02T05:31:50;3.43;;;2.20;;
13197;SDS011;6664;52.514;13.440;2023-05-02T05:34:36;4.37;;;2.83;;
13197;SDS011;6664;52.514;13.440;2023-05-02T05:37:21;2.90;;;2.60;;
13197;SDS011;6664;52.514;13.440;2023-05-02T05:40:10;2.80;;;2.03;;
13197;SDS011;6664;52.514;13.440;2023-05-02T05:42:58;5.77;;;2.60;;
13197;SDS011;6664;52.514;13.440;2023-05-02T05:45:44;2.93;;;2.23;;
13197;SDS011;6664;52.514;13.440;2023-05-02T05:48:29;3.40;;;2.90;;
13197;SDS011;6664;52.514;13.440;2023-05-02T05:51:15;6.73;;;2.60;;
13197;SDS011;6664;52.514;13.440;2023-05-02T05:54:00;4.00;;;2.63;;
13197;SDS011;6664;52.514;13.440;2023-05-02T05:56:46;4.73;;;3.37;;
13197;SDS011;6664;52.514;13.440;2023-05-02T05:59:36;3.40;;;2.60;;
13197;SDS011;6664;52.514;13.440;2023-05-02T06:02:25;3.30;;;3.00;;
13197;SDS011;6664;52.514;13.440;2023-05-02T06:05:10;3.40;;;3.10;;
13197;SDS011;6664;52.514;13.440;2023-05-02T06:07:58;4.57;;;2.90;;
13197;SDS011;6664;52.514;13.440;2023-05-02T06:10:44;3.27;;;2.97;;
13197;SDS011;6664;52.514;13.440;2023-05-02T06:13:30;7.80;;;3.47;;
13197;SDS011;6664;52.514;13.440;2023-05-02T06:16:15;5.07;;;3.33;;
13197;SDS011;6664;52.514;13.440;2023-05-02T06:19:02;4.63;;;3.30;;
13197;SDS011;6664;52.514;13.440;2023-05-02T06:21:48;7.17;;;4.07;;
13197;SDS011;6664;52.514;13.440;2023-05-02T06:24:33;7.23;;;4.43;;
13197;SDS011;6664;52.514;13.440;2023-05-02T06:27:25;8.23;;;4.27;;
13197;SDS011;6664;52.514;13.440;2023-05-02T06:30:10;5.07;;;4.03;;
13197;SDS011;6664;52.514;13.440;2023-05-02T06:32:56;4.47;;;3.60;;
13197;SDS011;6664;52.514;13.440;2023-05-02T06:35:43;6.73;;;5.00;;
13197;SDS011;6664;52.514;13.440;2023-05-02T06:38:36;4.80;;;4.40;;
13197;SDS011;6664;52.514;13.440;2023-05-02T06:41:21;5.97;;;4.90;;
13197;SDS011;6664;52.514;13.440;2023-05-02T06:44:07;9.43;;;4.67;;
13197;SDS011;6664;52.514;13.440;2023-05-02T06:46:54;8.37;;;4.70;;
13197;SDS011;6664;52.514;13.440;2023-05-02T06:49:41;7.80;;;5.70;;
13197;SDS011;6664;52.514;13.440;2023-05-02T06:52:27;11.63;;;5.20;;
13197;SDS011;6664;52.514;13.440;2023-05-02T06:55:15;8.73;;;5.17;;
13197;SDS011;6664;52.514;13.440;2023-05-02T06:58:01;10.00;;;5.27;;
13197;SDS011;6664;52.514;13.440;2023-05-02T07:00:46;9.53;;;5.03;;
13197;SDS011;6664;52.514;13.440;2023-05-02T07:03:33;8.50;;;5.83;;
13197;SDS011;6664;52.514;13.440;2023-05-02T07:06:19;7.73;;;4.60;;
13197;SDS011;6664;52.514;13.440;2023-05-02T07:09:05;8.13;;;4.43;;
13197;SDS011;6664;52.514;13.440;2023-05-02T07:11:51;9.63;;;5.07;;
13197;SDS011;6664;52.514;13.440;2023-05-02T07:14:36;6.63;;;4.43;;
13197;SDS011;6664;52.514;13.440;2023-05-02T07:17:23;4.97;;;3.90;;
13197;SDS011;6664;52.514;13.440;2023-05-02T07:20:09;6.27;;;4.53;;
13197;SDS011;6664;52.514;13.440;2023-05-02T07:22:58;4.80;;;4.30;;
13197;SDS011;6664;52.514;13.440;2023-05-02T07:25:43;8.67;;;4.00;;
13197;SDS011;6664;52.514;13.440;2023-05-02T07:28:29;8.67;;;4.43;;
13197;SDS011;6664;52.514;13.440;2023-05-02T07:31:15;6.10;;;4.67;;
13197;SDS011;6664;52.514;13.440;2023-05-02T07:34:02;4.63;;;4.20;;
13197;SDS011;6664;52.514;13.440;2023-05-02T07:36:48;4.20;;;3.80;;
13197;SDS011;6664;52.514;13.440;2023-05-02T07:39:36;4.90;;;4.13;;
13197;SDS011;6664;52.514;13.440;2023-05-02T07:42:22;7.73;;;4.07;;
13197;SDS011;6664;52.514;13.440;2023-05-02T07:45:11;7.70;;;3.93;;
13197;SDS011;6664;52.514;13.440;2023-05-02T07:48:00;4.60;;;3.67;;
13197;SDS011;6664;52.514;13.440;2023-05-02T07:50:45;4.23;;;3.77;;
13197;SDS011;6664;52.514;13.440;2023-05-02T07:53:31;5.23;;;3.67;;
13197;SDS011;6664;52.514;13.440;2023-05-02T07:56:17;7.43;;;3.13;;
13197;SDS011;6664;52.514;13.440;2023-05-02T07:59:05;4.67;;;3.50;;
13197;SDS011;6664;52.514;13.440;2023-05-02T08:01:55;3.50;;;3.20;;
13197;SDS011;6664;52.514;13.440;2023-05-02T08:04:43;3.50;;;2.57;;
13197;SDS011;6664;52.514;13.440;2023-05-02T08:07:30;5.43;;;3.37;;
13197;SDS011;6664;52.514;13.440;2023-05-02T08:10:20;3.13;;;2.90;;
13197;SDS011;6664;52.514;13.440;2023-05-02T08:13:10;3.53;;;2.23;;
13197;SDS011;6664;52.514;13.440;2023-05-02T08:15:58;3.43;;;3.17;;
13197;SDS011;6664;52.514;13.440;2023-05-02T08:18:47;2.20;;;2.10;;
13197;SDS011;6664;52.514;13.440;2023-05-02T08:21:32;3.60;;;2.73;;
13197;SDS011;6664;52.514;13.440;2023-05-02T08:24:18;4.20;;;3.23;;
13197;SDS011;6664;52.514;13.440;2023-05-02T08:27:04;5.27;;;3.13;;
13197;SDS011;6664;52.514;13.440;2023-05-02T08:29:52;4.90;;;3.23;;
13197;SDS011;6664;52.514;13.440;2023-05-02T08:32:38;5.53;;;3.10;;
13197;SDS011;6664;52.514;13.440;2023-05-02T08:35:23;4.10;;;3.17;;
13197;SDS011;6664;52.514;13.440;2023-05-02T08:38:12;3.70;;;3.07;;
13197;SDS011;6664;52.514;13.440;2023-05-02T08:40:58;3.73;;;3.37;;
13197;SDS011;6664;52.514;13.440;2023-05-02T08:43:46;9.10;;;3.23;;
13197;SDS011;6664;52.514;13.440;2023-05-02T08:46:34;4.30;;;3.20;;
13197;SDS011;6664;52.514;13.440;2023-05-02T08:49:23;3.03;;;2.73;;
13197;SDS011;6664;52.514;13.440;2023-05-02T08:52:11;5.47;;;3.60;;
13197;SDS011;6664;52.514;13.440;2023-05-02T08:54:57;8.30;;;3.10;;
13197;SDS011;6664;52.514;13.440;2023-05-02T08:57:48;3.50;;;3.13;;
13197;SDS011;6664;52.514;13.440;2023-05-02T09:00:37;9.20;;;3.33;;
13197;SDS011;6664;52.514;13.440;2023-05-02T09:06:17;2.70;;;2.47;;
13197;SDS011;6664;52.514;13.440;2023-05-02T09:09:04;3.03;;;2.73;;
13197;SDS011;6664;52.514;13.440;2023-05-02T09:11:50;6.43;;;2.60;;
13197;SDS011;6664;52.514;13.440;2023-05-02T09:14:36;5.97;;;2.37;;
13197;SDS011;6664;52.514;13.440;2023-05-02T09:17:24;3.20;;;2.90;;
13197;SDS011;6664;52.514;13.440;2023-05-02T09:20:12;3.80;;;3.10;;
13197;SDS011;6664;52.514;13.440;2023-05-02T09:23:00;2.73;;;2.50;;
13197;SDS011;6664;52.514;13.440;2023-05-02T09:25:46;5.60;;;2.70;;
13197;SDS011;6664;52.514;13.440;2023-05-02T09:28:38;3.63;;;2.67;;
13197;SDS011;6664;52.514;13.440;2023-05-02T09:31:29;2.50;;;2.17;;
13197;SDS011;6664;52.514;13.440;2023-05-02T09:34:28;3.67;;;2.70;;
13197;SDS011;6664;52.514;13.440;2023-05-02T09:37:32;2.90;;;2.40;;
13197;SDS011;6664;52.514;13.440;2023-05-02T09:40:18;2.93;;;2.37;;
13197;SDS011;6664;52.514;13.440;2023-05-02T09:43:13;5.03;;;2.70;;
13197;SDS011;6664;52.514;13.440;2023-05-02T09:46:03;2.67;;;2.33;;
13197;SDS011;6664;52.514;13.440;2023-05-02T09:51:40;2.50;;;2.30;;
13197;SDS011;6664;52.514;13.440;2023-05-02T09:54:34;5.40;;;2.70;;
13197;SDS011;6664;52.514;13.440;2023-05-02T09:57:20;2.20;;;2.00;;
13197;SDS011;6664;52.514;13.440;2023-05-02T10:00:07;2.10;;;1.90;;
13197;SDS011;6664;52.514;13.440;2023-05-02T10:02:53;1.97;;;1.87;;
13197;SDS011;6664;52.514;13.440;2023-05-02T10:05:44;2.10;;;1.80;;
13197;SDS011;6664;52.514;13.440;2023-05-02T10:08:31;2.30;;;2.20;;
13197;SDS011;6664;52.514;13.440;2023-05-02T10:11:17;4.37;;;2.47;;
13197;SDS011;6664;52.514;13.440;2023-05-02T10:14:02;2.30;;;2.20;;
13197;SDS011;6664;52.514;13.440;2023-05-02T10:16:59;2.10;;;2.00;;
13197;SDS011;6664;52.514;13.440;2023-05-02T10:22:34;2.60;;;1.70;;
13197;SDS011;6664;52.514;13.440;2023-05-02T10:25:20;2.20;;;1.90;;
13197;SDS011;6664;52.514;13.440;2023-05-02T10:28:07;2.97;;;2.00;;
13197;SDS011;6664;52.514;13.440;2023-05-02T10:30:54;2.30;;;2.10;;
13197;SDS011;6664;52.514;13.440;2023-05-02T10:33:42;2.43;;;2.23;;
13197;SDS011;6664;52.514;13.440;2023-05-02T10:36:28;2.40;;;2.20;;
13197;SDS011;6664;52.514;13.440;2023-05-02T10:39:17;3.83;;;2.27;;
13197;SDS011;6664;52.514;13.440;2023-05-02T10:42:08;7.70;;;2.13;;
13197;SDS011;6664;52.514;13.440;2023-05-02T10:44:54;1.90;;;1.70;;
13197;SDS011;6664;52.514;13.440;2023-05-02T10:47:43;1.80;;;1.70;;
13197;SDS011;6664;52.514;13.440;2023-05-02T10:53:49;3.30;;;2.17;;
13197;SDS011;6664;52.514;13.440;2023-05-02T10:56:35;1.70;;;1.60;;
13197;SDS011;6664;52.514;13.440;2023-05-02T10:59:44;2.30;;;2.00;;
13197;SDS011;6664;52.514;13.440;2023-05-02T11:05:15;2.30;;;2.00;;
13197;SDS011;6664;52.514;13.440;2023-05-02T11:11:34;4.60;;;2.53;;
13197;SDS011;6664;52.514;13.440;2023-05-02T11:17:15;7.73;;;3.30;;
13197;SDS011;6664;52.514;13.440;2023-05-02T11:22:49;8.67;;;3.77;;
13197;SDS011;6664;52.514;13.440;2023-05-02T11:25:36;9.73;;;3.53;;
13197;SDS011;6664;52.514;13.440;2023-05-02T11:34:14;5.13;;;3.00;;
13197;SDS011;6664;52.514;13.440;2023-05-02T11:37:09;7.97;;;2.63;;
13197;SDS011;6664;52.514;13.440;2023-05-02T11:40:11;5.53;;;2.70;;
13197;SDS011;6664;52.514;13.440;2023-05-02T11:42:58;6.10;;;2.50;;
13197;SDS011;6664;52.514;13.440;2023-05-02T11:45:59;8.20;;;2.80;;
13197;SDS011;6664;52.514;13.440;2023-05-02T11:48:49;12.03;;;2.97;;
13197;SDS011;6664;52.514;13.440;2023-05-02T11:51:36;5.20;;;2.53;;
13197;SDS011;6664;52.514;13.440;2023-05-02T11:54:21;5.27;;;2.57;;
13197;SDS011;6664;52.514;13.440;2023-05-02T11:57:07;4.77;;;2.37;;
13197;SDS011;6664;52.514;13.440;2023-05-02T11:59:54;3.63;;;2.30;;
13197;SDS011;6664;52.514;13.440;2023-05-02T12:02:43;3.80;;;1.97;;
13197;SDS011;6664;52.514;13.440;2023-05-02T12:05:32;3.63;;;2.13;;
13197;SDS011;6664;52.514;13.440;2023-05-02T12:08:19;4.73;;;1.50;;
13197;SDS011;6664;52.514;13.440;2023-05-02T12:11:09;1.70;;;1.60;;
13197;SDS011;6664;52.514;13.440;2023-05-02T12:13:59;4.13;;;2.97;;
13197;SDS011;6664;52.514;13.440;2023-05-02T12:16:44;4.93;;;1.73;;
13197;SDS011;6664;52.514;13.440;2023-05-02T12:19:30;4.63;;;1.57;;
13197;SDS011;6664;52.514;13.440;2023-05-02T12:22:16;3.13;;;1.23;;
13197;SDS011;6664;52.514;13.440;2023-05-02T12:25:02;1.83;;;1.50;;
13197;SDS011;6664;52.514;13.440;2023-05-02T12:28:00;4.20;;;1.90;;
13197;SDS011;6664;52.514;13.440;2023-05-02T12:30:47;2.77;;;1.83;;
13197;SDS011;6664;52.514;13.440;2023-05-02T12:33:41;7.93;;;2.00;;
13197;SDS011;6664;52.514;13.440;2023-05-02T12:36:27;4.70;;;1.53;;
13197;SDS011;6664;52.514;13.440;2023-05-02T12:39:13;4.90;;;2.10;;
13197;SDS011;6664;52.514;13.440;2023-05-02T12:41:59;4.53;;;2.00;;
13197;SDS011;6664;52.514;13.440;2023-05-02T12:44:52;4.90;;;1.77;;
13197;SDS011;6664;52.514;13.440;2023-05-02T12:47:44;5.03;;;2.20;;
13197;SDS011;6664;52.514;13.440;2023-05-02T12:50:36;6.13;;;2.00;;
13197;SDS011;6664;52.514;13.440;2023-05-02T12:53:41;2.20;;;2.00;;
13197;SDS011;6664;52.514;13.440;2023-05-02T12:56:28;4.10;;;2.50;;
13197;SDS011;6664;52.514;13.440;2023-05-02T13:02:12;6.83;;;2.03;;
13197;SDS011;6664;52.514;13.440;2023-05-02T13:04:57;4.53;;;1.80;;
13197;SDS011;6664;52.514;13.440;2023-05-02T13:07:43;4.13;;;1.83;;
13197;SDS011;6664;52.514;13.440;2023-05-02T13:10:31;5.83;;;2.40;;
13197;SDS011;6664;52.514;13.440;2023-05-02T13:13:17;6.87;;;2.30;;
13197;SDS011;6664;52.514;13.440;2023-05-02T13:16:05;8.43;;;1.83;;
13197;SDS011;6664;52.514;13.440;2023-05-02T13:18:51;2.20;;;1.93;;
13197;SDS011;6664;52.514;13.440;2023-05-02T13:21:40;5.90;;;1.73;;
13197;SDS011;6664;52.514;13.440;2023-05-02T13:24:25;3.13;;;1.60;;
13197;SDS011;6664;52.514;13.440;2023-05-02T13:27:11;4.90;;;1.80;;
13197;SDS011;6664;52.514;13.440;2023-05-02T13:29:57;6.87;;;2.20;;
13197;SDS011;6664;52.514;13.440;2023-05-02T13:32:43;5.50;;;2.00;;
13197;SDS011;6664;52.514;13.440;2023-05-02T13:35:28;2.60;;;1.63;;
13197;SDS011;6664;52.514;13.440;2023-05-02T13:38:13;4.00;;;2.07;;
13197;SDS011;6664;52.514;13.440;2023-05-02T13:40:59;5.40;;;2.37;;
13197;SDS011;6664;52.514;13.440;2023-05-02T13:43:46;2.50;;;1.60;;
13197;SDS011;6664;52.514;13.440;2023-05-02T13:46:34;5.30;;;1.70;;
13197;SDS011;6664;52.514;13.440;2023-05-02T13:49:21;6.93;;;1.87;;
13197;SDS011;6664;52.514;13.440;2023-05-02T13:52:07;3.50;;;1.90;;
13197;SDS011;6664;52.514;13.440;2023-05-02T13:54:55;7.97;;;2.00;;
13197;SDS011;6664;52.514;13.440;2023-05-02T13:57:43;3.50;;;2.50;;
13197;SDS011;6664;52.514;13.440;2023-05-02T14:00:29;4.60;;;2.13;;
13197;SDS011;6664;52.514;13.440;2023-05-02T14:03:16;5.10;;;1.80;;
13197;SDS011;6664;52.514;13.440;2023-05-02T14:06:06;2.80;;;1.90;;
13197;SDS011;6664;52.514;13.440;2023-05-02T14:08:52;12.23;;;1.93;;
13197;SDS011;6664;52.514;13.440;2023-05-02T14:11:37;7.30;;;2.33;;
13197;SDS011;6664;52.514;13.440;2023-05-02T14:14:23;13.00;;;2.20;;
13197;SDS011;6664;52.514;13.440;2023-05-02T14:17:11;5.10;;;1.90;;
13197;SDS011;6664;52.514;13.440;2023-05-02T14:19:56;2.83;;;1.87;;
13197;SDS011;6664;52.514;13.440;2023-05-02T14:22:43;4.23;;;2.00;;
13197;SDS011;6664;52.514;13.440;2023-05-02T14:25:31;2.40;;;2.10;;
13197;SDS011;6664;52.514;13.440;2023-05-02T14:28:16;6.80;;;2.60;;
13197;SDS011;6664;52.514;13.440;2023-05-02T14:31:02;3.60;;;1.80;;
13197;SDS011;6664;52.514;13.440;2023-05-02T14:33:48;3.43;;;1.93;;
13197;SDS011;6664;52.514;13.440;2023-05-02T14:36:34;3.07;;;1.70;;
13197;SDS011;6664;52.514;13.440;2023-05-02T14:39:23;3.60;;;1.90;;
13197;SDS011;6664;52.514;13.440;2023-05-02T14:42:11;4.30;;;2.13;;
13197;SDS011;6664;52.514;13.440;2023-05-02T14:44:57;9.57;;;2.50;;
13197;SDS011;6664;52.514;13.440;2023-05-02T14:47:45;2.37;;;2.17;;
13197;SDS011;6664;52.514;13.440;2023-05-02T14:50:32;1.90;;;1.70;;
13197;SDS011;6664;52.514;13.440;2023-05-02T14:53:20;2.50;;;2.10;;
13197;SDS011;6664;52.514;13.440;2023-05-02T14:56:10;5.10;;;2.00;;
13197;SDS011;6664;52.514;13.440;2023-05-02T14:58:56;3.87;;;2.03;;
13197;SDS011;6664;52.514;13.440;2023-05-02T15:01:42;7.47;;;1.83;;
13197;SDS011;6664;52.514;13.440;2023-05-02T15:04:30;7.50;;;1.70;;
13197;SDS011;6664;52.514;13.440;2023-05-02T15:07:16;4.63;;;2.10;;
13197;SDS011;6664;52.514;13.440;2023-05-02T15:10:02;2.03;;;1.43;;
13197;SDS011;6664;52.514;13.440;2023-05-02T15:12:51;4.00;;;1.97;;
13197;SDS011;6664;52.514;13.440;2023-05-02T15:15:36;4.40;;;1.47;;
13197;SDS011;6664;52.514;13.440;2023-05-02T15:18:22;7.60;;;2.20;;
13197;SDS011;6664;52.514;13.440;2023-05-02T15:21:07;8.53;;;2.73;;
13197;SDS011;6664;52.514;13.440;2023-05-02T15:23:53;5.10;;;1.87;;
13197;SDS011;6664;52.514;13.440;2023-05-02T15:26:39;3.07;;;1.43;;
13197;SDS011;6664;52.514;13.440;2023-05-02T15:29:27;6.30;;;2.03;;
13197;SDS011;6664;52.514;13.440;2023-05-02T15:32:12;3.13;;;1.93;;
13197;SDS011;6664;52.514;13.440;2023-05-02T15:35:00;4.30;;;1.80;;
13197;SDS011;6664;52.514;13.440;2023-05-02T15:37:46;2.93;;;2.17;;
13197;SDS011;6664;52.514;13.440;2023-05-02T15:40:31;3.30;;;1.80;;
13197;SDS011;6664;52.514;13.440;2023-05-02T15:43:17;5.97;;;1.73;;
13197;SDS011;6664;52.514;13.440;2023-05-02T15:46:03;12.00;;;2.00;;
13197;SDS011;6664;52.514;13.440;2023-05-02T15:48:48;2.20;;;1.93;;
13197;SDS011;6664;52.514;13.440;2023-05-02T15:51:36;3.70;;;2.20;;
13197;SDS011;6664;52.514;13.440;2023-05-02T15:54:22;4.43;;;2.30;;
13197;SDS011;6664;52.514;13.440;2023-05-02T15:57:07;2.93;;;1.80;;
13197;SDS011;6664;52.514;13.440;2023-05-02T15:59:54;4.70;;;1.57;;
13197;SDS011;6664;52.514;13.440;2023-05-02T16:02:39;3.50;;;2.27;;
13197;SDS011;6664;52.514;13.440;2023-05-02T16:05:25;13.47;;;2.00;;
13197;SDS011;6664;52.514;13.440;2023-05-02T16:08:11;7.43;;;2.40;;
13197;SDS011;6664;52.514;13.440;2023-05-02T16:10:57;5.13;;;1.90;;
13197;SDS011;6664;52.514;13.440;2023-05-02T16:13:44;2.63;;;2.00;;
13197;SDS011;6664;52.514;13.440;2023-05-02T16:16:30;1.50;;;1.40;;
13197;SDS011;6664;52.514;13.440;2023-05-02T16:19:16;3.80;;;1.90;;
13197;SDS011;6664;52.514;13.440;2023-05-02T16:22:05;3.50;;;2.07;;
13197;SDS011;6664;52.514;13.440;2023-05-02T16:24:51;1.93;;;1.73;;
13197;SDS011;6664;52.514;13.440;2023-05-02T16:27:36;7.10;;;1.80;;
13197;SDS011;6664;52.514;13.440;2023-05-02T16:30:21;4.27;;;1.90;;
13197;SDS011;6664;52.514;13.440;2023-05-02T16:33:07;3.83;;;2.00;;
13197;SDS011;6664;52.514;13.440;2023-05-02T16:36:00;3.77;;;2.47;;
13197;SDS011;6664;52.514;13.440;2023-05-02T16:38:47;2.37;;;2.13;;
13197;SDS011;6664;52.514;13.440;2023-05-02T16:41:35;2.20;;;2.00;;
13197;SDS011;6664;52.514;13.440;2023-05-02T16:44:21;4.30;;;2.43;;
13197;SDS011;6664;52.514;13.440;2023-05-02T16:47:06;4.97;;;2.10;;
13197;SDS011;6664;52.514;13.440;2023-05-02T16:49:56;13.60;;;2.30;;
13197;SDS011;6664;52.514;13.440;2023-05-02T16:52:43;3.47;;;1.73;;
13197;SDS011;6664;52.514;13.440;2023-05-02T16:55:28;11.17;;;2.17;;
13197;SDS011;6664;52.514;13.440;2023-05-02T16:58:13;2.20;;;1.93;;
13197;SDS011;6664;52.514;13.440;2023-05-02T17:01:00;4.43;;;1.90;;
13197;SDS011;6664;52.514;13.440;2023-05-02T17:03:49;2.53;;;2.07;;
13197;SDS011;6664;52.514;13.440;2023-05-02T17:06:35;4.87;;;1.93;;
13197;SDS011;6664;52.514;13.440;2023-05-02T17:09:21;4.47;;;1.67;;
13197;SDS011;6664;52.514;13.440;2023-05-02T17:12:07;5.67;;;2.43;;
13197;SDS011;6664;52.514;13.440;2023-05-02T17:14:56;4.10;;;2.00;;
13197;SDS011;6664;52.514;13.440;2023-05-02T17:17:42;8.43;;;2.30;;
13197;SDS011;6664;52.514;13.440;2023-05-02T17:20:28;6.17;;;2.23;;
13197;SDS011;6664;52.514;13.440;2023-05-02T17:23:13;8.27;;;2.57;;
13197;SDS011;6664;52.514;13.440;2023-05-02T17:26:03;3.70;;;1.73;;
13197;SDS011;6664;52.514;13.440;2023-05-02T17:28:58;5.60;;;1.70;;
13197;SDS011;6664;52.514;13.440;2023-05-02T17:31:43;3.90;;;2.20;;
13197;SDS011;6664;52.514;13.440;2023-05-02T17:34:29;3.33;;;1.77;;
13197;SDS011;6664;52.514;13.440;2023-05-02T17:37:15;2.93;;;2.17;;
13197;SDS011;6664;52.514;13.440;2023-05-02T17:40:00;2.70;;;1.70;;